Time;durP1;ratioP1;P1;durP2;ratioP2;P2;SDS_P1;SDS_P2;PMS_P1;PMS_P2;Temp;Humidity;BMP_temperature;BMP_pressure;BME280_temperature;BME280_humidity;BME280_pressure;Samples;Min_cycle;Max_cycle;Signal;HPM_P1;HPM_P2
2023/11/18 00:01:53;;;;;;;9.77;5.07;;;;;;;3.25;100.00;101904.50;7368274;19;20423;-53
2023/11/18 00:04:23;;;;;;;25.80;9.53;;;;;;;3.23;100.00;101903.47;7394187;19;20396;-52
2023/11/18 00:06:54;;;;;;;14.70;5.97;;;;;;;3.18;100.00;101904.69;7365078;19;20454;-51
2023/11/18 00:09:24;;;;;;;9.97;5.40;;;;;;;3.20;100.00;101899.00;7391135;19;20415;-51
2023/11/18 00:11:56;;;;;;;14.10;6.07;;;;;;;3.23;100.00;101899.25;7366411;19;20423;-53
2023/11/18 00:14:26;;;;;;;13.97;5.40;;;;;;;3.18;100.00;101891.94;7391758;19;20423;-52
2023/11/18 00:16:56;;;;;;;14.40;6.70;;;;;;;3.25;100.00;101894.28;7358675;19;20459;-54
2023/11/18 00:19:25;;;;;;;11.80;6.50;;;;;;;3.24;100.00;101887.41;7383240;19;20774;-53
2023/11/18 00:21:55;;;;;;;10.27;5.40;;;;;;;3.23;100.00;101885.63;7367922;19;20426;-53
2023/11/18 00:24:25;;;;;;;10.60;5.17;;;;;;;3.28;100.00;101884.34;7390836;19;20491;-53
2023/11/18 00:26:57;;;;;;;19.80;7.27;;;;;;;3.32;100.00;101880.41;7367852;19;20463;-50
2023/11/18 00:29:27;;;;;;;11.43;5.40;;;;;;;3.27;100.00;101889.34;7393139;19;20739;-47
2023/11/18 00:31:57;;;;;;;13.33;5.67;;;;;;;3.28;100.00;101899.66;7369390;19;20433;-54
2023/11/18 00:34:26;;;;;;;15.90;7.00;;;;;;;3.21;100.00;101899.88;7392213;19;21052;-53
2023/11/18 00:36:57;;;;;;;8.80;4.87;;;;;;;3.20;100.00;101896.44;7368072;19;20459;-55
2023/11/18 00:39:27;;;;;;;9.70;4.70;;;;;;;3.25;100.00;101896.84;7389581;19;20411;-53
2023/11/18 00:41:59;;;;;;;11.87;5.90;;;;;;;3.32;100.00;101891.53;7368717;19;20423;-52
2023/11/18 00:44:28;;;;;;;11.43;5.63;;;;;;;3.31;100.00;101897.38;7392507;19;20407;-54
2023/11/18 00:46:58;;;;;;;12.53;5.87;;;;;;;3.31;100.00;101897.38;7367433;19;20454;-56
2023/11/18 00:49:28;;;;;;;10.63;4.90;;;;;;;3.33;100.00;101903.50;7388864;19;20775;-53
2023/11/18 00:51:58;;;;;;;11.80;5.10;;;;;;;3.34;100.00;101905.31;7368622;19;20423;-54
2023/11/18 00:54:27;;;;;;;11.80;4.97;;;;;;;3.35;100.00;101904.53;7390456;19;21402;-56
2023/11/18 00:57:00;;;;;;;8.50;4.70;;;;;;;3.32;100.00;101909.38;7366273;19;20471;-47
2023/11/18 00:59:30;;;;;;;8.33;4.23;;;;;;;3.32;100.00;101911.94;7386329;19;20443;-55
2023/11/18 01:02:00;;;;;;;14.70;5.00;;;;;;;3.27;100.00;101913.16;7367175;19;20822;-51
2023/11/18 01:04:33;;;;;;;10.30;4.93;;;;;;;3.34;100.00;101912.97;7392633;19;20422;-52
2023/11/18 01:07:02;;;;;;;11.30;4.10;;;;;;;3.34;100.00;101910.41;7363340;19;20459;-49
2023/11/18 01:09:36;;;;;;;8.53;3.80;;;;;;;3.36;100.00;101913.09;7389139;19;20483;-50
2023/11/18 01:12:10;;;;;;;9.57;4.63;;;;;;;3.37;100.00;101913.25;7368680;19;20419;-53
2023/11/18 01:14:41;;;;;;;11.43;5.37;;;;;;;3.37;100.00;101909.78;7391968;19;20962;-49
2023/11/18 01:17:13;;;;;;;9.27;4.93;;;;;;;3.34;100.00;101914.63;7366393;19;20856;-55
2023/11/18 01:19:43;;;;;;;7.97;4.30;;;;;;;3.32;100.00;101914.47;7391592;19;20430;-50
2023/11/18 01:22:13;;;;;;;8.70;4.50;;;;;;;3.36;100.00;101915.66;7367437;19;20425;-55
2023/11/18 01:24:43;;;;;;;10.67;4.17;;;;;;;3.20;100.00;101915.94;7390577;19;20416;-49
2023/11/18 01:27:16;;;;;;;10.17;4.90;;;;;;;3.25;100.00;101917.25;7365213;19;20542;-54
2023/11/18 01:29:46;;;;;;;13.30;6.67;;;;;;;3.30;100.00;101910.91;7389461;19;20487;-52
2023/11/18 01:32:17;;;;;;;11.77;5.30;;;;;;;3.31;100.00;101911.78;7368439;19;20502;-47
2023/11/18 01:34:50;;;;;;;9.17;4.90;;;;;;;3.26;100.00;101911.38;7389664;19;20498;-56
2023/11/18 01:37:21;;;;;;;32.03;12.57;;;;;;;3.30;100.00;101913.47;7365801;19;20815;-51
2023/11/18 01:39:51;;;;;;;36.37;15.03;;;;;;;3.34;100.00;101915.50;7388675;19;20491;-54
2023/11/18 01:42:23;;;;;;;9.23;4.80;;;;;;;3.31;100.00;101907.59;7366562;19;20891;-52
2023/11/18 01:44:54;;;;;;;10.30;5.03;;;;;;;3.28;100.00;101909.84;7388515;19;20407;-52
2023/11/18 01:47:24;;;;;;;10.90;5.30;;;;;;;3.20;100.00;101906.63;7364277;19;20484;-50
2023/11/18 01:49:55;;;;;;;10.40;5.20;;;;;;;3.26;100.00;101901.19;7388503;19;20424;-48
2023/11/18 01:52:24;;;;;;;12.20;5.40;;;;;;;3.27;100.00;101913.16;7366296;19;20443;-50
2023/11/18 01:54:56;;;;;;;15.73;6.60;;;;;;;3.27;100.00;101913.16;7388938;19;20478;-53
2023/11/18 01:57:29;;;;;;;12.40;5.77;;;;;;;3.26;100.00;101910.47;7365030;19;20447;-48
2023/11/18 01:59:59;;;;;;;11.60;5.40;;;;;;;3.21;100.00;101918.63;7388574;19;20416;-49
2023/11/18 02:02:29;;;;;;;12.97;6.10;;;;;;;3.17;100.00;101920.78;7366901;19;20442;-48
2023/11/18 02:04:58;;;;;;;11.37;4.73;;;;;;;3.14;100.00;101930.69;7389000;19;20798;-47
2023/11/18 02:07:28;;;;;;;12.63;5.20;;;;;;;3.08;100.00;101926.81;7362931;19;20456;-51
2023/11/18 02:09:58;;;;;;;13.17;6.47;;;;;;;3.09;100.00;101931.16;7386933;19;20506;-53
2023/11/18 02:12:40;;;;;;;11.30;5.10;;;;;;;3.09;100.00;101930.28;7365460;19;20431;-54
2023/11/18 02:15:12;;;;;;;9.53;5.50;;;;;;;3.00;100.00;101931.97;7388932;19;20810;-51
2023/11/18 02:17:44;;;;;;;14.30;6.27;;;;;;;2.88;100.00;101932.66;7366277;19;20971;-49
2023/11/18 02:20:16;;;;;;;21.23;9.03;;;;;;;2.87;100.00;101930.84;7366136;19;20407;-47
2023/11/18 02:22:46;;;;;;;17.07;6.57;;;;;;;2.90;100.00;101925.13;7387257;19;20411;-51
2023/11/18 02:25:18;;;;;;;11.70;5.90;;;;;;;2.83;100.00;101924.56;7365576;19;20978;-49
2023/11/18 02:27:51;;;;;;;11.57;6.17;;;;;;;2.81;100.00;101928.63;7386417;19;20511;-52
2023/11/18 02:30:22;;;;;;;13.23;6.30;;;;;;;2.82;100.00;101927.88;7365160;19;20479;-53
2023/11/18 02:32:57;;;;;;;12.33;6.67;;;;;;;2.94;100.00;101927.22;7386717;19;20431;-49
2023/11/18 02:35:29;;;;;;;14.40;7.00;;;;;;;2.94;100.00;101932.31;7367334;19;20409;-48
2023/11/18 02:38:00;;;;;;;13.67;6.90;;;;;;;2.86;100.00;101933.28;7385547;19;20439;-48
2023/11/18 02:40:32;;;;;;;16.40;7.30;;;;;;;2.86;100.00;101935.81;7361062;19;20416;-52
2023/11/18 02:43:09;;;;;;;14.03;7.20;;;;;;;2.81;100.00;101925.19;7385460;19;20403;-50
2023/11/18 02:45:41;;;;;;;16.07;7.83;;;;;;;2.76;100.00;101927.31;7366865;19;20418;-53
2023/11/18 02:48:11;;;;;;;16.50;8.27;;;;;;;2.78;100.00;101932.56;7385611;19;20435;-48
2023/11/18 02:50:42;;;;;;;14.40;7.53;;;;;;;2.82;100.00;101942.28;7363444;19;20516;-52
2023/11/18 02:53:12;;;;;;;37.13;12.70;;;;;;;2.86;100.00;101933.28;7385879;19;20951;-52
2023/11/18 02:55:43;;;;;;;15.70;8.23;;;;;;;2.84;100.00;101935.69;7365906;19;20441;-53
2023/11/18 02:58:17;;;;;;;17.43;8.67;;;;;;;2.80;100.00;101929.41;7381111;19;20451;-52
2023/11/18 03:00:47;;;;;;;14.67;8.23;;;;;;;2.78;100.00;101933.44;7365272;19;20426;-52
2023/11/18 03:03:17;;;;;;;15.87;8.20;;;;;;;2.77;100.00;101934.19;7387000;19;20423;-53
2023/11/18 03:05:49;;;;;;;21.20;9.70;;;;;;;2.89;100.00;101931.00;7362880;19;20442;-47
2023/11/18 03:08:19;;;;;;;17.13;9.00;;;;;;;2.89;100.00;101931.91;7385930;19;21556;-48
2023/11/18 03:10:50;;;;;;;18.57;9.17;;;;;;;2.90;100.00;101926.03;7364310;19;20502;-47
2023/11/18 03:13:23;;;;;;;16.73;8.83;;;;;;;2.84;100.00;101931.44;7385540;19;20502;-48
2023/11/18 03:15:52;;;;;;;17.93;9.43;;;;;;;2.86;100.00;101923.94;7364059;19;20485;-49
2023/11/18 03:18:22;;;;;;;22.17;9.57;;;;;;;2.82;100.00;101922.78;7384141;19;20481;-50
2023/11/18 03:20:52;;;;;;;15.47;8.23;;;;;;;2.82;100.00;101921.91;7364494;19;20422;-47
2023/11/18 03:23:21;;;;;;;18.83;8.60;;;;;;;2.87;100.00;101919.75;7385175;19;20483;-51
2023/11/18 03:25:52;;;;;;;18.03;8.50;;;;;;;2.91;100.00;101922.72;7363842;19;20419;-49
2023/11/18 03:28:24;;;;;;;43.50;16.57;;;;;;;2.97;100.00;101924.94;7384063;19;20971;-51
2023/11/18 03:30:53;;;;;;;22.37;8.23;;;;;;;2.91;100.00;101924.38;7364249;19;20419;-48
2023/11/18 03:33:23;;;;;;;13.10;7.40;;;;;;;2.91;100.00;101916.72;7385812;19;20407;-49
2023/11/18 03:35:55;;;;;;;12.47;7.50;;;;;;;2.89;100.00;101924.25;7364341;19;20487;-50
2023/11/18 03:38:24;;;;;;;16.37;7.57;;;;;;;2.87;100.00;101927.41;7384608;19;20530;-49
2023/11/18 03:40:55;;;;;;;21.30;10.47;;;;;;;2.87;100.00;101924.88;7363706;19;20415;-48
2023/11/18 03:43:28;;;;;;;32.83;14.53;;;;;;;2.91;100.00;101926.91;7389381;19;20390;-46
2023/11/18 03:45:58;;;;;;;37.50;15.87;;;;;;;2.87;100.00;101924.88;7371846;19;20383;-47
2023/11/18 03:48:28;;;;;;;16.53;7.63;;;;;;;2.75;100.00;101930.63;7391234;19;20451;-48
2023/11/18 03:50:57;;;;;;;14.10;7.37;;;;;;;2.73;100.00;101934.69;7369991;19;20412;-49
2023/11/18 03:53:27;;;;;;;16.17;8.30;;;;;;;2.76;100.00;101939.19;7393618;19;20396;-51
2023/11/18 03:55:56;;;;;;;17.20;7.90;;;;;;;2.76;100.00;101947.69;7371208;19;20411;-53
2023/11/18 03:58:28;;;;;;;14.33;7.20;;;;;;;2.84;100.00;101943.31;7391551;19;20519;-53
2023/11/18 04:00:59;;;;;;;14.90;7.57;;;;;;;2.90;100.00;101940.44;7371738;19;20792;-54
2023/11/18 04:03:29;;;;;;;14.87;7.07;;;;;;;2.93;100.00;101945.81;7392034;19;20403;-53
2023/11/18 04:05:58;;;;;;;24.07;9.70;;;;;;;3.05;100.00;101940.94;7368135;19;20399;-52
2023/11/18 04:08:28;;;;;;;14.70;7.93;;;;;;;3.08;100.00;101942.09;7390950;19;20970;-53
2023/11/18 04:10:58;;;;;;;27.70;11.30;;;;;;;3.16;100.00;101939.34;7369394;19;20403;-53
2023/11/18 04:13:30;;;;;;;16.60;7.40;;;;;;;3.06;100.00;101935.97;7390699;19;20395;-56
2023/11/18 04:16:00;;;;;;;15.93;7.57;;;;;;;3.03;100.00;101943.34;7369430;19;20427;-51
2023/11/18 04:18:29;;;;;;;19.57;9.43;;;;;;;2.89;100.00;101936.09;7390651;19;20439;-58
2023/11/18 04:21:00;;;;;;;13.30;6.70;;;;;;;2.90;100.00;101935.31;7369032;19;20496;-54
2023/11/18 04:23:30;;;;;;;24.80;10.93;;;;;;;3.04;100.00;101928.94;7392798;19;20404;-52
2023/11/18 04:26:00;;;;;;;16.70;6.90;;;;;;;3.04;100.00;101940.06;7369210;19;20438;-54
2023/11/18 04:28:32;;;;;;;14.30;6.90;;;;;;;3.04;100.00;101937.50;7389960;19;20873;-58
2023/11/18 04:31:02;;;;;;;29.20;13.57;;;;;;;3.22;100.00;101945.94;7367137;19;20415;-52
2023/11/18 04:33:33;;;;;;;22.70;9.77;;;;;;;3.25;100.00;101940.22;7391219;19;20794;-54
2023/11/18 04:36:05;;;;;;;12.30;7.00;;;;;;;3.18;100.00;101932.75;7376974;19;20426;-53
2023/11/18 04:38:35;;;;;;;14.53;7.17;;;;;;;3.16;100.00;101929.16;7397290;19;20445;-52
2023/11/18 04:41:06;;;;;;;13.53;6.70;;;;;;;3.18;100.00;101933.63;7375870;19;20415;-53
2023/11/18 04:43:39;;;;;;;16.17;7.93;;;;;;;3.15;100.00;101937.56;7397673;19;20431;-56
2023/11/18 04:46:14;;;;;;;13.60;6.60;;;;;;;3.10;100.00;101942.25;7374080;19;21042;-56
2023/11/18 04:48:44;;;;;;;15.50;6.97;;;;;;;3.05;100.00;101934.19;7396993;19;20443;-52
2023/11/18 04:51:13;;;;;;;12.73;6.00;;;;;;;3.01;100.00;101936.31;7373719;19;20431;-49
2023/11/18 04:53:44;;;;;;;11.60;5.80;;;;;;;3.02;100.00;101940.66;7397311;19;20403;-51
2023/11/18 04:56:16;;;;;;;11.87;6.03;;;;;;;2.98;100.00;101949.69;7373408;19;20797;-51
2023/11/18 04:58:48;;;;;;;12.67;6.37;;;;;;;3.05;100.00;101946.94;7399108;19;20404;-48
2023/11/18 05:01:18;;;;;;;23.20;7.60;;;;;;;3.05;100.00;101949.50;7373757;19;20534;-53
2023/11/18 05:03:48;;;;;;;12.27;7.00;;;;;;;2.99;100.00;101943.84;7396621;19;20427;-55
2023/11/18 05:06:19;;;;;;;15.57;7.80;;;;;;;2.96;100.00;101946.09;7371875;19;20436;-51
2023/11/18 05:08:49;;;;;;;14.73;6.53;;;;;;;3.02;100.00;101931.34;7398255;19;21213;-51
2023/11/18 05:11:19;;;;;;;13.67;6.63;;;;;;;3.10;100.00;101925.31;7373278;19;20430;-54
2023/11/18 05:13:51;;;;;;;14.50;7.07;;;;;;;3.03;100.00;101928.03;7397102;19;20825;-53
2023/11/18 05:16:22;;;;;;;14.47;6.57;;;;;;;3.07;100.00;101919.00;7373424;19;20441;-49
2023/11/18 05:18:51;;;;;;;18.37;7.83;;;;;;;3.02;100.00;101927.91;7396839;19;20404;-55
2023/11/18 05:21:21;;;;;;;20.40;8.73;;;;;;;3.01;100.00;101923.56;7370697;19;20419;-51
2023/11/18 05:23:51;;;;;;;16.30;6.53;;;;;;;3.04;100.00;101919.66;7396783;19;20486;-55
2023/11/18 05:26:20;;;;;;;14.93;6.90;;;;;;;2.97;100.00;101922.38;7374258;19;20462;-55
2023/11/18 05:28:54;;;;;;;12.27;6.70;;;;;;;2.87;100.00;101917.22;7396016;19;20411;-52
2023/11/18 05:31:23;;;;;;;12.83;7.43;;;;;;;2.87;100.00;101909.56;7373112;19;20443;-53
2023/11/18 05:33:55;;;;;;;18.37;8.70;;;;;;;2.94;100.00;101914.47;7396220;19;20420;-53
2023/11/18 05:36:27;;;;;;;11.70;5.90;;;;;;;2.95;100.00;101911.16;7372596;19;20901;-55
2023/11/18 05:38:57;;;;;;;13.07;7.00;;;;;;;2.85;100.00;101901.78;7396149;19;20408;-56
2023/11/18 05:41:31;;;;;;;16.43;7.53;;;;;;;2.86;100.00;101902.69;7372993;19;20498;-50
2023/11/18 05:44:03;;;;;;;13.37;6.50;;;;;;;2.94;100.00;101901.72;7399042;19;20811;-53
2023/11/18 05:46:33;;;;;;;17.77;6.53;;;;;;;2.96;100.00;101905.28;7371078;19;20474;-52
2023/11/18 05:49:07;;;;;;;13.50;6.87;;;;;;;2.83;100.00;101905.84;7398159;19;20404;-53
2023/11/18 05:51:37;;;;;;;14.83;7.40;;;;;;;2.83;100.00;101910.94;7372978;19;20427;-52
2023/11/18 05:54:07;;;;;;;22.47;9.80;;;;;;;2.81;100.00;101905.69;7396033;19;20807;-52
2023/11/18 05:56:36;;;;;;;41.77;17.07;;;;;;;2.96;100.00;101903.66;7372481;19;20820;-51
2023/11/18 05:59:08;;;;;;;20.90;9.20;;;;;;;2.97;100.00;101891.78;7394567;19;20490;-52
2023/11/18 06:01:38;;;;;;;16.33;7.67;;;;;;;2.93;100.00;101890.59;7372292;19;20503;-50
2023/11/18 06:04:08;;;;;;;18.47;6.70;;;;;;;3.04;100.00;101881.41;7396976;19;20411;-52
2023/11/18 06:06:38;;;;;;;17.97;8.87;;;;;;;2.95;100.00;101881.47;7370743;19;20466;-48
2023/11/18 06:09:09;;;;;;;15.47;7.93;;;;;;;2.98;100.00;101883.41;7394048;19;20467;-53
2023/11/18 06:11:41;;;;;;;15.63;7.40;;;;;;;2.82;100.00;101887.09;7372636;19;20969;-50
2023/11/18 06:14:13;;;;;;;13.37;7.10;;;;;;;2.88;100.00;101896.06;7394671;19;20769;-50
2023/11/18 06:16:43;;;;;;;16.30;7.80;;;;;;;2.87;100.00;101889.16;7371673;19;21030;-53
2023/11/18 06:19:13;;;;;;;13.70;6.57;;;;;;;2.76;100.00;101891.63;7393972;19;20403;-48
2023/11/18 06:21:43;;;;;;;15.83;8.00;;;;;;;2.71;100.00;101892.84;7372041;19;20415;-51
2023/11/18 06:24:14;;;;;;;13.90;7.53;;;;;;;2.66;100.00;101896.66;7391937;19;20486;-53
2023/11/18 06:26:44;;;;;;;17.17;8.10;;;;;;;2.57;100.00;101886.50;7372402;19;20494;-51
2023/11/18 06:29:16;;;;;;;32.23;12.77;;;;;;;2.66;100.00;101883.91;7396776;19;20403;-51
2023/11/18 06:31:46;;;;;;;15.03;7.20;;;;;;;2.55;100.00;101883.81;7362857;19;20431;-41
2023/11/18 06:34:16;;;;;;;15.67;7.33;;;;;;;2.59;100.00;101876.44;7394461;19;20947;-41
2023/11/18 06:36:46;;;;;;;16.67;7.60;;;;;;;2.55;100.00;101883.81;7370799;19;20494;-42
2023/11/18 06:39:16;;;;;;;17.57;8.03;;;;;;;2.46;100.00;101888.03;7392980;19;20407;-45
2023/11/18 06:41:48;;;;;;;18.47;8.63;;;;;;;2.50;100.00;101891.75;7370619;19;20430;-41
2023/11/18 06:44:23;;;;;;;31.63;15.53;;;;;;;3.26;100.00;101890.97;7393661;19;20403;-41
2023/11/18 06:46:53;;;;;;;18.10;7.70;;;;;;;2.99;100.00;101892.84;7371116;19;20422;-41
2023/11/18 06:49:25;;;;;;;28.07;12.20;;;;;;;3.74;100.00;101894.31;7392934;19;20411;-42
2023/11/18 06:51:54;;;;;;;31.27;15.30;;;;;;;4.44;100.00;101885.81;7369447;19;20967;-42
2023/11/18 06:54:27;;;;;;;21.80;10.10;;;;;;;4.05;100.00;101891.84;7395676;19;20475;-40
2023/11/18 06:56:56;;;;;;;23.40;10.23;;;;;;;4.39;100.00;101892.19;7370621;19;20427;-42
2023/11/18 06:59:28;;;;;;;20.87;10.40;;;;;;;4.82;100.00;101892.34;7394471;19;20768;-41
2023/11/18 07:01:59;;;;;;;14.93;7.77;;;;;;;4.15;100.00;101909.75;7368966;19;20437;-41
2023/11/18 07:04:28;;;;;;;16.50;7.50;;;;;;;3.46;100.00;101925.94;7386011;19;21456;-40
2023/11/18 07:06:58;;;;;;;25.93;8.90;;;;;;;2.97;100.00;101945.31;7361242;19;20422;-40
2023/11/18 07:09:28;;;;;;;15.87;7.17;;;;;;;2.58;100.00;101951.09;7385492;19;20971;-40
2023/11/18 07:11:58;;;;;;;16.53;7.57;;;;;;;2.50;100.00;101973.28;7357079;19;20452;-41
2023/11/18 07:14:30;;;;;;;15.30;7.77;;;;;;;2.48;100.00;101978.28;7386225;19;20491;-40
2023/11/18 07:16:59;;;;;;;25.00;10.27;;;;;;;2.41;100.00;101986.97;7362824;19;20412;-42
2023/11/18 07:19:29;;;;;;;33.07;13.20;;;;;;;2.38;100.00;101991.78;7385317;19;20412;-43
2023/11/18 07:21:59;;;;;;;20.87;9.40;;;;;;;2.41;100.00;102001.38;7362711;19;20442;-43
2023/11/18 07:24:29;;;;;;;25.00;9.80;;;;;;;2.36;100.00;101997.50;7385875;19;20492;-42
2023/11/18 07:27:00;;;;;;;17.13;8.13;;;;;;;2.41;100.00;101986.09;7362706;19;21066;-40
2023/11/18 07:29:33;;;;;;;34.33;12.63;;;;;;;2.55;100.00;101983.19;7384833;19;20785;-40
2023/11/18 07:32:05;;;;;;;17.10;8.50;;;;;;;2.91;100.00;101972.81;7360012;19;20423;-40
2023/11/18 07:34:35;;;;;;;18.80;8.97;;;;;;;2.91;100.00;101973.72;7384467;19;20809;-41
2023/11/18 07:37:05;;;;;;;16.87;8.07;;;;;;;2.89;100.00;101959.94;7362820;19;20494;-40
2023/11/18 07:39:43;;;;;;;15.67;7.57;;;;;;;3.31;100.00;101956.06;7384286;19;20523;-39
2023/11/18 07:42:14;;;;;;;16.97;8.40;;;;;;;3.47;100.00;101952.34;7361687;19;20985;-40
2023/11/18 07:44:47;;;;;;;17.20;9.43;;;;;;;3.61;100.00;101956.13;7384737;19;20407;-40
2023/11/18 07:47:19;;;;;;;22.33;9.23;;;;;;;3.74;100.00;101968.34;7361243;19;20502;-42
2023/11/18 07:49:49;;;;;;;20.40;9.83;;;;;;;3.56;100.00;101965.94;7383458;19;20975;-40
2023/11/18 07:52:19;;;;;;;19.63;10.10;;;;;;;3.97;100.00;101970.38;7360595;19;20738;-40
2023/11/18 07:54:48;;;;;;;239.03;94.90;;;;;;;4.38;100.00;101977.31;7384852;19;20837;-42
2023/11/18 07:57:23;;;;;;;23.20;10.10;;;;;;;4.51;100.00;101974.13;7361855;19;20982;-41
2023/11/18 07:59:56;;;;;;;36.20;16.10;;;;;;;4.61;100.00;101975.81;7383446;19;20491;-40
2023/11/18 08:02:25;;;;;;;28.57;13.37;;;;;;;4.20;100.00;101981.69;7362047;19;20433;-39
2023/11/18 08:04:56;;;;;;;34.23;15.27;;;;;;;4.38;100.00;101984.97;7384537;19;20423;-40
2023/11/18 08:07:26;;;;;;;19.07;8.87;;;;;;;4.12;100.00;101985.25;7359198;19;20807;-40
2023/11/18 08:09:57;;;;;;;14.90;7.60;;;;;;;3.81;100.00;101993.66;7388241;19;20498;-40
2023/11/18 08:12:25;;;;;;;14.90;7.83;;;;;;;3.49;100.00;101999.31;7367760;19;20437;-40
2023/11/18 08:14:57;;;;;;;15.23;8.63;;;;;;;3.29;100.00;102012.81;7389457;19;20486;-41
2023/11/18 08:17:27;;;;;;;17.90;8.40;;;;;;;3.12;100.00;102013.81;7369434;19;20419;-40
2023/11/18 08:19:58;;;;;;;17.67;9.20;;;;;;;3.18;100.00;102009.28;7390147;19;20495;-39
2023/11/18 08:22:27;;;;;;;14.23;7.50;;;;;;;3.17;100.00;102007.50;7368938;19;20419;-40
2023/11/18 08:24:54;;;;;;;16.83;8.60;;;;;;;3.30;100.00;102009.50;7389776;19;21017;-38
2023/11/18 08:27:24;;;;;;;29.33;11.13;;;;;;;3.10;100.00;102008.56;7368261;19;20508;-39
2023/11/18 08:29:56;;;;;;;21.53;9.30;;;;;;;3.13;100.00;101998.63;7388942;19;20415;-41
2023/11/18 08:32:26;;;;;;;20.80;9.93;;;;;;;3.23;100.00;101993.63;7367697;19;20451;-40
2023/11/18 08:34:56;;;;;;;20.47;9.37;;;;;;;3.25;100.00;101986.13;7392672;19;20419;-40
2023/11/18 08:37:25;;;;;;;18.90;8.30;;;;;;;3.27;100.00;101979.50;7368119;19;20423;-39
2023/11/18 08:39:56;;;;;;;24.80;8.63;;;;;;;3.29;100.00;101978.00;7389114;19;20404;-41
2023/11/18 08:42:27;;;;;;;19.90;9.10;;;;;;;3.32;100.00;101978.25;7369204;19;20946;-40
2023/11/18 08:45:00;;;;;;;16.23;8.10;;;;;;;3.38;100.00;101973.72;7389978;19;20411;-40
2023/11/18 08:47:33;;;;;;;32.53;12.20;;;;;;;3.46;100.00;101965.84;7368188;19;20524;-41
2023/11/18 08:50:11;;;;;;;20.20;10.40;;;;;;;3.61;100.00;101949.38;7387875;19;20438;-41
2023/11/18 08:52:43;;;;;;;28.10;11.83;;;;;;;3.72;100.00;101959.63;7367041;19;20506;-40
2023/11/18 08:55:20;;;;;;;20.70;9.90;;;;;;;3.81;100.00;101955.34;7366837;19;20403;-42
2023/11/18 08:57:58;;;;;;;21.43;8.77;;;;;;;3.89;100.00;101958.56;7388094;19;20407;-41
2023/11/18 09:00:46;;;;;;;33.37;14.53;;;;;;;3.92;100.00;101949.53;7366662;19;20430;-40
2023/11/18 09:03:24;;;;;;;31.93;13.77;;;;;;;4.17;100.00;101953.34;7389119;19;20402;-41
2023/11/18 09:06:04;;;;;;;18.73;8.30;;;;;;;4.16;100.00;101946.44;7367577;19;20793;-41
2023/11/18 09:08:34;;;;;;;16.83;7.73;;;;;;;4.26;100.00;101949.00;7387854;19;20399;-40
2023/11/18 09:11:06;;;;;;;19.90;7.97;;;;;;;4.29;100.00;101956.03;7365372;19;20423;-39
2023/11/18 09:13:37;;;;;;;20.23;8.60;;;;;;;4.31;100.00;101954.53;7387262;19;21022;-41
2023/11/18 09:16:11;;;;;;;14.60;7.60;;;;;;;4.36;100.00;101953.25;7364634;19;20478;-40
2023/11/18 09:18:43;;;;;;;22.67;10.53;;;;;;;4.35;100.00;101950.59;7386834;19;20798;-40
2023/11/18 09:21:14;;;;;;;17.60;8.10;;;;;;;4.32;100.00;101952.09;7361971;19;20480;-41
2023/11/18 09:23:47;;;;;;;15.00;6.23;;;;;;;4.30;100.00;101958.75;7386955;19;20410;-41
2023/11/18 09:26:17;;;;;;;24.93;9.83;;;;;;;4.30;100.00;101953.63;7365257;19;20974;-41
2023/11/18 09:28:49;;;;;;;11.87;5.97;;;;;;;4.31;100.00;101950.31;7383876;19;20406;-40
2023/11/18 09:31:22;;;;;;;17.73;8.30;;;;;;;4.36;100.00;101948.13;7364106;19;20433;-41
2023/11/18 09:33:57;;;;;;;23.47;8.80;;;;;;;4.38;100.00;101949.19;7386680;19;20982;-40
2023/11/18 09:36:28;;;;;;;30.40;12.60;;;;;;;4.39;100.00;101953.53;7364112;19;20422;-41
2023/11/18 09:38:59;;;;;;;10.43;5.30;;;;;;;4.47;100.00;101954.19;7385167;19;20408;-41
2023/11/18 09:41:29;;;;;;;13.70;6.00;;;;;;;4.57;100.00;101961.88;7363705;19;20435;-41
2023/11/18 09:44:02;;;;;;;12.07;4.83;;;;;;;4.60;100.00;101971.47;7386573;19;20403;-42
2023/11/18 09:46:40;;;;;;;10.90;4.10;;;;;;;4.62;100.00;101969.03;7364644;19;20411;-40
2023/11/18 09:49:25;;;;;;;65.53;23.63;;;;;;;4.73;100.00;101969.19;7386592;19;20433;-42
2023/11/18 09:52:00;;;;;;;10.10;4.50;;;;;;;4.85;100.00;101960.75;7364427;19;20435;-41
2023/11/18 09:54:33;;;;;;;9.43;4.50;;;;;;;4.92;100.00;101959.63;7387017;19;20482;-43
2023/11/18 09:57:08;;;;;;;11.60;5.80;;;;;;;5.04;100.00;101958.09;7363616;19;20423;-40
2023/11/18 09:59:45;;;;;;;9.00;3.70;;;;;;;5.08;100.00;101966.91;7385996;19;20411;-40
2023/11/18 10:02:18;;;;;;;8.17;4.00;;;;;;;5.21;100.00;101967.16;7363810;19;20443;-40
2023/11/18 10:04:49;;;;;;;9.60;4.33;;;;;;;5.17;100.00;101987.28;7385849;19;21026;-40
2023/11/18 10:07:22;;;;;;;8.70;3.20;;;;;;;5.21;100.00;101997.88;7363229;19;20415;-40
2023/11/18 10:09:56;;;;;;;8.23;3.77;;;;;;;5.42;100.00;101992.75;7386938;19;20435;-40
2023/11/18 10:12:26;;;;;;;8.70;3.57;;;;;;;5.36;100.00;101999.91;7363275;19;20439;-40
2023/11/18 10:14:58;;;;;;;6.53;3.10;;;;;;;5.44;100.00;102005.69;7386393;19;20967;-41
2023/11/18 10:17:31;;;;;;;5.90;2.60;;;;;;;5.38;100.00;102012.06;7358371;19;20992;-42
2023/11/18 10:20:12;;;;;;;30.80;12.10;;;;;;;5.47;100.00;102009.38;7386528;19;20444;-40
2023/11/18 10:22:44;;;;;;;12.20;5.07;;;;;;;5.42;100.00;102007.22;7366548;19;20442;-39
2023/11/18 10:25:26;;;;;;;10.93;4.23;;;;;;;5.46;100.00;102007.59;7364814;19;20408;-40
2023/11/18 10:27:57;;;;;;;5.60;2.53;;;;;;;5.37;100.00;102004.25;7384666;19;20775;-41
2023/11/18 10:30:31;;;;;;;7.23;3.47;;;;;;;5.37;100.00;102006.81;7363401;19;20443;-41
2023/11/18 10:33:05;;;;;;;7.37;2.93;;;;;;;5.37;100.00;101996.56;7385235;19;20998;-40
2023/11/18 10:35:37;;;;;;;10.23;4.20;;;;;;;5.49;100.00;101997.59;7365270;19;20423;-41
2023/11/18 10:38:07;;;;;;;6.93;2.93;;;;;;;5.44;100.00;101988.63;7387071;19;20398;-42
2023/11/18 10:40:37;;;;;;;7.70;3.60;;;;;;;5.48;100.00;101998.38;7364045;19;20418;-40
2023/11/18 10:43:09;;;;;;;30.07;12.23;;;;;;;5.57;100.00;101995.66;7386103;19;20413;-39
2023/11/18 10:45:40;;;;;;;7.10;3.00;;;;;;;5.58;100.00;102001.69;7365035;19;20416;-40
2023/11/18 10:48:19;;;;;;;21.07;5.53;;;;;;;5.63;100.00;101992.69;7386718;19;20405;-39
2023/11/18 10:50:50;;;;;;;8.27;4.13;;;;;;;5.68;100.00;101999.09;7362600;19;20430;-39
2023/11/18 10:53:21;;;;;;;8.00;3.97;;;;;;;5.71;100.00;101995.91;7386011;19;20400;-40
2023/11/18 10:55:51;;;;;;;9.37;3.87;;;;;;;5.69;100.00;101998.31;7364686;19;20491;-39
2023/11/18 10:58:21;;;;;;;38.57;15.43;;;;;;;5.78;100.00;101983.72;7385984;19;20411;-39
2023/11/18 11:00:53;;;;;;;7.77;3.50;;;;;;;5.75;100.00;101978.34;7362556;19;20506;-39
2023/11/18 11:03:26;;;;;;;10.47;4.33;;;;;;;5.74;100.00;101966.31;7385498;19;20767;-41
2023/11/18 11:05:56;;;;;;;4.50;2.10;;;;;;;5.65;100.00;101963.00;7362452;19;20454;-39
2023/11/18 11:08:27;;;;;;;4.30;1.97;;;;;;;5.72;100.00;101954.16;7386245;19;20443;-40
2023/11/18 11:11:16;;;;;;;5.47;2.47;;;;;;;5.75;100.00;101951.84;7362742;19;20446;-40
2023/11/18 11:13:46;;;;;;;4.80;2.13;;;;;;;5.81;100.00;101937.84;7385510;19;20395;-41
2023/11/18 11:16:23;;;;;;;5.30;2.33;;;;;;;5.86;100.00;101945.03;7364174;19;20443;-40
2023/11/18 11:18:58;;;;;;;4.10;1.90;;;;;;;5.84;100.00;101942.31;7383910;19;21041;-40
2023/11/18 11:21:32;;;;;;;3.60;1.47;;;;;;;5.71;100.00;101935.34;7363679;19;20498;-40
2023/11/18 11:24:08;;;;;;;5.63;1.97;;;;;;;5.55;100.00;101933.22;7385998;19;20423;-42
2023/11/18 11:26:44;;;;;;;6.03;2.30;;;;;;;5.44;100.00;101942.56;7365092;19;20710;-40
2023/11/18 11:29:29;;;;;;;5.17;2.33;;;;;;;5.61;100.00;101925.13;7383999;19;20949;-39
2023/11/18 11:32:12;;;;;;;5.43;2.57;;;;;;;5.71;100.00;101924.19;7362037;19;20426;-41
2023/11/18 11:34:51;;;;;;;27.47;10.10;;;;;;;5.95;100.00;101909.91;7386199;19;20400;-41
2023/11/18 11:37:22;;;;;;;7.30;3.43;;;;;;;6.04;100.00;101897.84;7363099;19;20430;-39